Time;durP1;ratioP1;P1;durP2;ratioP2;P2;SDS_P1;SDS_P2;PMS_P1;PMS_P2;Temp;Humidity;BMP_temperature;BMP_pressure;BME280_temperature;BME280_humidity;BME280_pressure;Samples;Min_cycle;Max_cycle;Signal;HPM_P1;HPM_P2
2022/03/02 00:00:13;;;;;;;13.73;6.03;;;1.60;84.10;;;;;;4209205;28;20339;-66
2022/03/02 00:02:14;;;;;;;12.93;5.23;;;1.60;84.10;;;;;;4210063;28;20269;-71
2022/03/02 00:04:16;;;;;;;11.13;5.00;;;1.60;84.20;;;;;;4208893;28;20261;-65
2022/03/02 00:06:17;;;;;;;10.03;5.10;;;1.60;84.40;;;;;;4210557;28;20268;-67
2022/03/02 00:08:20;;;;;;;10.43;4.83;;;1.50;84.80;;;;;;4190684;28;20289;-70
2022/03/02 00:10:21;;;;;;;11.10;4.60;;;1.50;84.70;;;;;;4407137;22;21037;-61
2022/03/02 00:12:22;;;;;;;8.27;4.10;;;1.50;84.90;;;;;;4200143;28;20277;-55
2022/03/02 00:14:24;;;;;;;10.80;4.53;;;1.50;84.90;;;;;;4234843;22;20379;-68
2022/03/02 00:16:25;;;;;;;10.27;5.70;;;1.50;85.10;;;;;;4180931;28;20776;-49
2022/03/02 00:18:26;;;;;;;10.93;5.30;;;1.50;85.10;;;;;;4183902;28;20273;-52
2022/03/02 00:20:28;;;;;;;9.80;4.90;;;1.50;85.80;;;;;;4189929;28;20270;-44
2022/03/02 00:22:29;;;;;;;14.97;6.07;;;1.40;85.90;;;;;;4184212;28;21068;-64
2022/03/02 00:24:30;;;;;;;9.47;5.37;;;1.40;86.00;;;;;;4174293;28;20270;-65
2022/03/02 00:26:32;;;;;;;9.43;5.80;;;1.40;86.10;;;;;;4181137;28;20344;-65
2022/03/02 00:28:34;;;;;;;11.87;4.97;;;1.40;86.20;;;;;;4173965;28;20348;-74
2022/03/02 00:30:35;;;;;;;10.77;5.67;;;1.40;86.10;;;;;;4179370;28;20331;-59
2022/03/02 00:32:37;;;;;;;12.00;5.50;;;1.40;86.20;;;;;;4192267;28;20676;-63
2022/03/02 00:34:38;;;;;;;10.03;4.67;;;1.40;86.20;;;;;;4191858;28;20265;-58
2022/03/02 00:36:39;;;;;;;10.57;5.73;;;1.40;86.40;;;;;;4192672;28;20323;-59
2022/03/02 00:38:40;;;;;;;9.77;4.53;;;1.40;86.40;;;;;;4190747;28;20338;-55
2022/03/02 00:40:43;;;;;;;8.20;4.20;;;1.40;86.70;;;;;;4192559;28;20272;-89
2022/03/02 00:42:44;;;;;;;9.30;5.07;;;1.40;86.70;;;;;;4190913;28;20311;-70
2022/03/02 00:44:45;;;;;;;7.60;4.20;;;1.30;87.10;;;;;;4192877;28;20331;-78
2022/03/02 00:46:47;;;;;;;8.83;4.30;;;1.40;87.50;;;;;;4190760;28;20273;-60
2022/03/02 00:48:48;;;;;;;12.03;5.17;;;1.30;87.20;;;;;;4188268;28;20332;-72
2022/03/02 00:50:50;;;;;;;10.07;4.53;;;1.30;87.30;;;;;;4207292;23;20324;-68
2022/03/02 00:52:51;;;;;;;10.17;4.33;;;1.30;87.50;;;;;;4201136;28;20277;-66
2022/03/02 00:54:52;;;;;;;10.03;4.53;;;1.30;87.40;;;;;;4193320;28;20812;-76
2022/03/02 00:56:54;;;;;;;12.80;4.80;;;1.30;87.30;;;;;;4195160;28;20261;-71
2022/03/02 00:58:55;;;;;;;12.17;4.40;;;1.40;87.50;;;;;;4190603;28;20304;-73
2022/03/02 01:00:56;;;;;;;9.23;4.40;;;1.40;87.60;;;;;;4206770;28;20253;-65
2022/03/02 01:02:57;;;;;;;9.70;4.70;;;1.30;87.70;;;;;;4203744;28;20261;-66
2022/03/02 01:04:59;;;;;;;9.67;4.83;;;1.30;87.60;;;;;;4192839;28;20257;-50
2022/03/02 01:07:00;;;;;;;9.27;4.90;;;1.30;87.60;;;;;;4187771;28;20327;-62
2022/03/02 01:09:02;;;;;;;11.00;5.33;;;1.30;87.70;;;;;;4191294;28;20355;-72
2022/03/02 01:11:03;;;;;;;10.50;5.60;;;1.30;88.10;;;;;;4204363;22;20668;-60
2022/03/02 01:13:04;;;;;;;11.07;5.07;;;1.30;88.20;;;;;;4214558;28;20682;-48
2022/03/02 01:15:07;;;;;;;9.83;4.30;;;1.30;88.10;;;;;;4205917;28;20714;-66
2022/03/02 01:17:08;;;;;;;9.07;4.43;;;1.20;88.00;;;;;;4228208;22;20327;-57
2022/03/02 01:19:10;;;;;;;10.37;5.10;;;1.30;88.30;;;;;;4192856;28;20827;-74
2022/03/02 01:23:22;;;;;;;10.53;4.80;;;1.20;88.30;;;;;;4180670;28;20375;-51
2022/03/02 01:25:23;;;;;;;9.93;4.37;;;1.20;88.50;;;;;;4187445;28;20270;-66
2022/03/02 01:27:26;;;;;;;9.67;4.93;;;1.20;88.50;;;;;;4177969;28;20270;-46
2022/03/02 01:29:28;;;;;;;12.33;5.77;;;1.10;88.70;;;;;;4172967;28;20343;-59
2022/03/02 01:31:30;;;;;;;10.40;5.53;;;1.10;89.00;;;;;;4186755;28;20332;-50
2022/03/02 01:33:31;;;;;;;17.43;6.20;;;1.10;89.10;;;;;;4190010;28;20320;-69
2022/03/02 01:35:32;;;;;;;17.37;8.07;;;1.10;89.40;;;;;;4191295;28;20331;-48
2022/03/02 01:37:33;;;;;;;13.77;7.23;;;1.10;89.60;;;;;;4189287;28;20265;-69
2022/03/02 01:39:35;;;;;;;15.87;6.67;;;1.10;89.90;;;;;;4190561;28;20277;-65
2022/03/02 01:41:37;;;;;;;17.97;7.83;;;1.00;90.00;;;;;;4189597;28;20315;-65
2022/03/02 01:43:38;;;;;;;21.83;10.33;;;1.00;90.10;;;;;;4172366;28;20270;-74
2022/03/02 01:45:40;;;;;;;21.30;10.10;;;1.00;90.20;;;;;;4189998;28;20707;-43
2022/03/02 01:47:41;;;;;;;20.70;9.27;;;1.00;90.10;;;;;;4188138;28;20323;-70
2022/03/02 01:49:43;;;;;;;37.43;13.20;;;1.00;90.20;;;;;;4486705;22;20330;-66
2022/03/02 01:51:44;;;;;;;33.90;13.23;;;1.00;90.20;;;;;;4184352;28;20265;-46
2022/03/02 01:53:46;;;;;;;39.37;15.20;;;1.00;90.20;;;;;;4172934;28;20307;-69
2022/03/02 01:55:47;;;;;;;40.93;18.30;;;0.90;90.30;;;;;;4172393;28;20340;-72
2022/03/02 01:57:49;;;;;;;25.30;10.07;;;0.90;90.40;;;;;;4175198;28;20274;-58
2022/03/02 01:59:50;;;;;;;25.13;12.20;;;1.00;90.40;;;;;;4522654;22;20390;-59
2022/03/02 02:01:51;;;;;;;23.50;10.43;;;1.00;90.40;;;;;;4182068;28;20274;-56
2022/03/02 02:03:53;;;;;;;17.47;7.43;;;0.90;90.50;;;;;;4191376;28;20336;-87
2022/03/02 02:05:55;;;;;;;12.67;6.40;;;0.90;90.70;;;;;;4193510;28;20335;-67
2022/03/02 02:07:56;;;;;;;13.73;6.13;;;0.90;90.90;;;;;;4175059;28;20361;-58
2022/03/02 02:09:57;;;;;;;13.57;6.47;;;0.80;90.90;;;;;;4203045;22;20308;-47
2022/03/02 02:12:00;;;;;;;11.80;6.07;;;0.80;91.10;;;;;;4176363;28;20705;-46
2022/03/02 02:14:01;;;;;;;16.10;7.13;;;0.80;91.40;;;;;;4177874;28;20882;-68
2022/03/02 02:16:04;;;;;;;16.43;7.83;;;0.70;91.40;;;;;;4176934;28;20282;-64
2022/03/02 02:18:06;;;;;;;14.27;6.90;;;0.70;91.60;;;;;;4171501;28;20286;-50
2022/03/02 02:20:09;;;;;;;10.00;6.30;;;0.70;91.50;;;;;;4191500;28;20269;-65
2022/03/02 02:22:10;;;;;;;14.07;6.63;;;0.70;91.60;;;;;;4193852;28;20315;-66
2022/03/02 02:24:11;;;;;;;15.87;6.87;;;0.70;91.70;;;;;;4193693;28;20312;-67
2022/03/02 02:26:13;;;;;;;17.60;7.40;;;0.70;91.70;;;;;;4196184;22;20306;-66
2022/03/02 02:28:23;;;;;;;16.87;8.80;;;0.70;92.10;;;;;;4170431;28;20297;-57
2022/03/02 02:30:25;;;;;;;18.77;7.03;;;0.70;92.00;;;;;;4165632;28;20289;-68
2022/03/02 02:32:26;;;;;;;14.10;7.00;;;0.70;92.30;;;;;;4177758;28;20373;-45
2022/03/02 02:34:28;;;;;;;14.17;7.80;;;0.70;92.40;;;;;;4171960;28;20317;-67
2022/03/02 02:36:29;;;;;;;18.77;8.87;;;0.70;92.40;;;;;;4160128;28;20274;-71
2022/03/02 02:38:30;;;;;;;20.63;10.13;;;0.70;92.60;;;;;;4160708;28;20266;-52
2022/03/02 02:40:32;;;;;;;25.63;12.90;;;0.80;92.80;;;;;;4142720;28;20271;-61
2022/03/02 02:42:34;;;;;;;39.40;17.87;;;0.80;92.80;;;;;;4281395;22;20300;-68
2022/03/02 02:44:36;;;;;;;13.27;7.00;;;0.80;92.80;;;;;;4204811;28;20404;-46
2022/03/02 02:46:44;;;;;;;16.03;7.27;;;0.70;92.90;;;;;;4205273;28;20291;-40
2022/03/02 02:48:45;;;;;;;17.00;7.50;;;0.70;93.20;;;;;;4192219;28;20346;-60
2022/03/02 02:50:47;;;;;;;19.30;8.60;;;0.60;93.30;;;;;;4191754;28;20814;-70
2022/03/02 02:52:49;;;;;;;19.17;8.20;;;0.50;93.60;;;;;;4191859;28;20753;-65
2022/03/02 02:54:51;;;;;;;16.97;8.27;;;0.50;94.00;;;;;;4196922;28;20284;-73
2022/03/02 02:56:52;;;;;;;18.90;9.23;;;0.50;94.20;;;;;;4209634;28;20729;-47
2022/03/02 02:58:53;;;;;;;16.63;8.70;;;0.50;94.40;;;;;;4208305;28;20295;-65
2022/03/02 03:00:54;;;;;;;25.03;10.23;;;0.40;94.50;;;;;;4409637;22;20305;-42
2022/03/02 03:02:57;;;;;;;22.33;10.27;;;0.50;94.40;;;;;;4180026;28;20262;-63
2022/03/02 03:04:58;;;;;;;20.00;9.83;;;0.40;94.70;;;;;;4191462;28;20281;-43
2022/03/02 03:06:59;;;;;;;23.93;10.43;;;0.40;94.90;;;;;;4175490;28;20270;-56
2022/03/02 03:09:01;;;;;;;21.27;8.97;;;0.30;94.90;;;;;;4577966;23;20365;-60
2022/03/02 03:11:03;;;;;;;18.97;9.43;;;0.30;95.20;;;;;;4193388;28;20297;-53
2022/03/02 03:13:05;;;;;;;23.73;9.80;;;0.30;95.30;;;;;;4191556;28;20690;-60
2022/03/02 03:15:09;;;;;;;23.67;11.70;;;0.30;95.50;;;;;;4192100;28;20273;-59
2022/03/02 03:17:10;;;;;;;28.33;10.77;;;0.30;95.90;;;;;;4191314;28;20792;-69
2022/03/02 03:19:11;;;;;;;22.43;9.97;;;0.20;96.00;;;;;;4174072;28;20348;-78
2022/03/02 03:21:12;;;;;;;22.40;8.87;;;0.20;96.30;;;;;;4191680;28;21172;-58
2022/03/02 03:23:15;;;;;;;13.57;6.07;;;0.10;96.60;;;;;;4193216;28;20269;-73
2022/03/02 03:25:16;;;;;;;15.90;7.03;;;0.10;96.50;;;;;;4189721;28;20273;-48
2022/03/02 03:27:18;;;;;;;15.63;7.07;;;0.00;96.80;;;;;;4226636;23;20302;-64
2022/03/02 03:29:19;;;;;;;19.63;7.47;;;-0.10;97.20;;;;;;4167177;28;20297;-63
2022/03/02 03:31:20;;;;;;;13.20;6.57;;;-0.10;97.30;;;;;;4175367;28;20278;-71
2022/03/02 03:33:21;;;;;;;13.90;7.17;;;-0.20;97.40;;;;;;4175340;28;20343;-67
2022/03/02 03:35:24;;;;;;;13.73;6.80;;;-0.30;97.30;;;;;;4171513;28;20312;-65
2022/03/02 03:37:26;;;;;;;11.03;6.47;;;-0.30;97.70;;;;;;4194214;23;20683;-67
2022/03/02 03:39:27;;;;;;;13.90;6.33;;;-0.40;98.10;;;;;;4224656;28;20268;-67
2022/03/02 03:41:28;;;;;;;17.43;6.57;;;-0.30;98.40;;;;;;4206365;28;20277;-49
2022/03/02 03:43:30;;;;;;;16.93;6.87;;;-0.40;98.60;;;;;;4206298;28;21159;-45
2022/03/02 03:45:31;;;;;;;18.70;6.87;;;-0.40;99.20;;;;;;4207636;28;20393;-43
2022/03/02 03:49:43;;;;;;;;;;;-0.40;99.30;;;;;;4345964;22;20883;-58
2022/03/02 03:51:43;;;;;;;;;;;-0.30;99.90;;;;;;4170292;28;19908;-52
2022/03/02 03:53:45;;;;;;;14.02;6.13;;;-0.40;99.90;;;;;;4182084;28;19975;-61
2022/03/02 03:55:46;;;;;;;13.13;6.07;;;-0.30;99.90;;;;;;4493342;23;20053;-63
2022/03/02 03:57:47;;;;;;;12.93;6.00;;;-0.30;99.90;;;;;;4164129;28;20373;-64
2022/03/02 03:59:51;;;;;;;15.17;6.27;;;-0.20;99.90;;;;;;4186488;28;20278;-72
2022/03/02 04:01:52;;;;;;;11.57;6.13;;;-0.10;99.70;;;;;;4174121;28;20265;-67
2022/03/02 04:03:54;;;;;;;13.37;5.57;;;-0.10;99.80;;;;;;4188387;28;20335;-64
2022/03/02 04:05:55;;;;;;;13.60;5.97;;;0.00;99.80;;;;;;4174974;28;20729;-49
2022/03/02 04:07:56;;;;;;;11.03;5.50;;;-0.10;99.80;;;;;;4175642;28;20680;-54
2022/03/02 04:09:58;;;;;;;11.20;5.90;;;0.00;99.90;;;;;;4175541;28;21287;-53
2022/03/02 04:11:59;;;;;;;10.43;6.23;;;0.00;99.90;;;;;;4192638;28;20281;-65
2022/03/02 04:14:00;;;;;;;14.00;6.27;;;0.10;99.90;;;;;;4175276;28;20323;-58
2022/03/02 04:16:01;;;;;;;10.70;5.87;;;0.10;99.90;;;;;;4189299;28;20277;-64
2022/03/02 04:18:02;;;;;;;13.43;6.53;;;0.20;99.90;;;;;;4190339;28;20343;-91
2022/03/02 04:20:05;;;;;;;14.70;5.87;;;0.20;99.90;;;;;;4174435;28;21273;-74
2022/03/02 04:22:06;;;;;;;11.83;5.93;;;0.30;99.90;;;;;;4175924;28;20319;-61
2022/03/02 04:24:07;;;;;;;13.50;5.30;;;0.30;99.90;;;;;;4174704;28;20660;-75
2022/03/02 04:26:08;;;;;;;14.87;5.87;;;0.40;99.90;;;;;;4175292;28;20258;-41
2022/03/02 04:28:10;;;;;;;12.70;5.87;;;0.40;99.90;;;;;;4174785;28;20673;-70
2022/03/02 04:30:13;;;;;;;14.17;6.40;;;0.40;99.90;;;;;;4229376;22;20383;-73
2022/03/02 04:32:14;;;;;;;13.00;6.07;;;0.40;99.90;;;;;;4184488;28;20265;-64
2022/03/02 04:34:15;;;;;;;14.67;6.60;;;0.40;99.90;;;;;;4186526;28;20303;-74
2022/03/02 04:36:16;;;;;;;17.60;6.57;;;0.30;99.90;;;;;;4173411;28;20274;-62
2022/03/02 04:38:18;;;;;;;17.63;6.87;;;0.30;99.90;;;;;;4175318;28;20262;-66
2022/03/02 04:40:19;;;;;;;11.40;5.77;;;0.20;99.90;;;;;;4191954;28;21153;-50
2022/03/02 04:42:20;;;;;;;11.20;5.63;;;0.20;99.90;;;;;;4185991;28;20280;-61
2022/03/02 04:44:21;;;;;;;21.60;6.30;;;0.30;99.90;;;;;;4190397;28;20253;-71
2022/03/02 04:46:22;;;;;;;21.73;9.03;;;0.30;99.90;;;;;;4185110;28;20273;-65
2022/03/02 04:48:24;;;;;;;29.70;8.40;;;0.30;99.90;;;;;;4182502;28;20282;-62
2022/03/02 04:50:26;;;;;;;24.20;7.13;;;0.30;99.90;;;;;;4180313;28;20371;-66
2022/03/02 04:52:28;;;;;;;21.13;7.90;;;0.20;99.90;;;;;;4170654;28;20343;-65
2022/03/02 04:56:50;;;;;;;21.05;7.82;;;0.20;99.90;;;;;;4266810;22;20717;-63
2022/03/02 04:58:51;;;;;;;21.00;7.73;;;0.20;99.90;;;;;;4211310;23;20110;-50
2022/03/02 05:00:52;;;;;;;26.03;8.30;;;0.20;99.90;;;;;;4172037;28;20733;-76
2022/03/02 05:02:57;;;;;;;25.30;8.57;;;0.20;99.90;;;;;;4176673;28;20852;-57
2022/03/02 05:04:58;;;;;;;16.97;6.90;;;0.20;99.90;;;;;;4174438;28;21027;-63
2022/03/02 05:06:59;;;;;;;15.63;7.00;;;0.30;99.90;;;;;;4173259;28;20312;-59
2022/03/02 05:09:00;;;;;;;17.30;6.73;;;0.30;99.90;;;;;;4189887;28;21087;-46
2022/03/02 05:11:01;;;;;;;21.33;7.47;;;0.30;99.90;;;;;;4189136;28;20726;-63
2022/03/02 05:13:03;;;;;;;18.07;8.43;;;0.30;99.90;;;;;;4183655;28;20828;-52
2022/03/02 05:15:07;;;;;;;17.73;8.37;;;0.30;99.90;;;;;;4172757;28;20274;-41
2022/03/02 05:17:08;;;;;;;20.03;8.60;;;0.30;99.90;;;;;;4185862;23;20302;-61
2022/03/02 05:19:09;;;;;;;20.10;8.40;;;0.30;99.90;;;;;;4172235;28;20316;-49
2022/03/02 05:21:11;;;;;;;20.43;7.73;;;0.40;99.90;;;;;;4159716;28;20842;-67
2022/03/02 05:23:12;;;;;;;15.97;7.37;;;0.40;99.90;;;;;;4138692;28;20755;-66
2022/03/02 05:25:15;;;;;;;20.40;7.73;;;0.40;99.90;;;;;;4158539;28;20255;-67
2022/03/02 05:27:17;;;;;;;20.53;8.00;;;0.40;99.90;;;;;;4168451;28;20286;-49
2022/03/02 05:29:18;;;;;;;14.67;7.07;;;0.40;99.90;;;;;;4170649;28;20684;-68
2022/03/02 05:31:21;;;;;;;20.57;8.07;;;0.40;99.90;;;;;;4175658;28;20683;-54
2022/03/02 05:33:22;;;;;;;18.03;7.57;;;0.50;99.90;;;;;;4178491;28;20319;-61
2022/03/02 05:35:23;;;;;;;30.07;9.80;;;0.60;99.90;;;;;;4197921;23;20254;-45
2022/03/02 05:37:24;;;;;;;21.57;9.47;;;0.60;99.90;;;;;;4195453;28;20338;-65
2022/03/02 05:39:25;;;;;;;24.60;9.30;;;0.60;99.90;;;;;;4191647;28;20676;-73
2022/03/02 05:41:27;;;;;;;19.80;8.70;;;0.70;99.90;;;;;;4184310;28;20328;-61
2022/03/02 05:43:28;;;;;;;20.50;9.43;;;0.70;99.90;;;;;;4187850;28;20356;-71
2022/03/02 05:45:29;;;;;;;19.30;8.60;;;0.70;99.90;;;;;;4187910;28;20270;-57
2022/03/02 05:48:02;;;;;;;21.60;8.50;;;0.70;99.90;;;;;;4306776;22;20287;31
2022/03/02 05:50:05;;;;;;;26.00;9.73;;;0.80;99.90;;;;;;4116533;28;20301;-44
2022/03/02 05:52:06;;;;;;;26.03;9.87;;;0.80;99.90;;;;;;4103222;28;20364;-60
2022/03/02 05:54:09;;;;;;;19.30;7.67;;;0.70;99.90;;;;;;4110975;28;21123;-46
2022/03/02 05:56:10;;;;;;;17.00;8.07;;;0.80;99.90;;;;;;4103610;28;20642;-70
2022/03/02 05:58:11;;;;;;;32.57;9.37;;;0.80;99.90;;;;;;4098362;28;20308;-64
2022/03/02 06:00:13;;;;;;;24.77;8.60;;;0.80;99.90;;;;;;4096552;28;20785;-68
2022/03/02 06:02:15;;;;;;;34.97;12.50;;;0.90;99.90;;;;;;4097929;28;20330;-83
2022/03/02 06:04:16;;;;;;;23.17;10.20;;;0.90;99.90;;;;;;4097497;28;20281;-64
2022/03/02 06:06:17;;;;;;;26.10;11.23;;;1.00;99.90;;;;;;4115627;28;20830;-62
2022/03/02 06:08:18;;;;;;;62.83;25.80;;;1.00;99.90;;;;;;4128950;28;20284;-49
2022/03/02 06:10:20;;;;;;;58.60;24.57;;;0.90;99.80;;;;;;4130393;28;20729;-80
2022/03/02 06:12:21;;;;;;;55.50;26.10;;;0.90;99.90;;;;;;4129997;28;20280;-55
2022/03/02 06:14:23;;;;;;;44.47;20.20;;;1.00;99.90;;;;;;4130525;28;20773;-46
2022/03/02 06:16:25;;;;;;;43.53;19.97;;;0.90;99.90;;;;;;4129170;28;20696;-51
2022/03/02 06:18:26;;;;;;;45.37;24.57;;;0.90;99.90;;;;;;4128390;28;20276;-44
2022/03/02 06:20:28;;;;;;;44.77;24.63;;;0.90;99.90;;;;;;4130170;28;20311;-79
2022/03/02 06:22:30;;;;;;;42.83;20.50;;;0.90;99.90;;;;;;4128737;28;20276;-80
2022/03/02 06:24:32;;;;;;;38.77;18.87;;;0.90;99.90;;;;;;4112575;28;20299;-75
2022/03/02 06:26:33;;;;;;;64.47;29.43;;;0.90;99.90;;;;;;4129323;28;20653;-73
2022/03/02 06:28:35;;;;;;;88.10;38.73;;;0.90;99.90;;;;;;4584435;22;21451;-55
2022/03/02 06:30:36;;;;;;;93.37;39.83;;;0.90;99.90;;;;;;4211013;28;20314;-50
2022/03/02 06:32:37;;;;;;;88.63;39.17;;;0.90;99.90;;;;;;4209743;28;20273;-62
2022/03/02 06:34:38;;;;;;;88.87;39.20;;;1.00;99.90;;;;;;4211271;28;20329;-56
2022/03/02 06:36:40;;;;;;;114.83;47.33;;;1.00;99.90;;;;;;4210375;28;20322;-57
2022/03/02 06:38:41;;;;;;;119.57;50.23;;;1.10;99.90;;;;;;4212325;28;20707;-48
2022/03/02 06:40:59;;;;;;;147.90;56.40;;;1.20;99.90;;;;;;4209700;28;21041;-59
2022/03/02 06:43:07;;;;;;;217.87;78.17;;;1.20;99.90;;;;;;4209886;28;20256;-50
2022/03/02 06:45:16;;;;;;;89.33;35.70;;;1.30;99.90;;;;;;4207615;28;21127;-52
2022/03/02 06:47:25;;;;;;;174.30;62.43;;;1.30;99.90;;;;;;4209138;28;20334;-54
2022/03/02 06:49:30;;;;;;;151.90;54.13;;;1.40;99.80;;;;;;4207780;28;20876;-47
2022/03/02 06:51:38;;;;;;;143.50;50.40;;;1.40;99.70;;;;;;4209491;28;20418;-62
2022/03/02 06:53:43;;;;;;;175.67;61.17;;;1.40;99.50;;;;;;4207342;28;20281;-57
2022/03/02 06:55:45;;;;;;;126.77;48.10;;;1.60;99.50;;;;;;4209284;28;20264;-58
2022/03/02 06:57:51;;;;;;;125.13;49.70;;;1.70;99.30;;;;;;4207573;28;20321;-56
2022/03/02 06:59:57;;;;;;;113.77;44.97;;;1.80;99.20;;;;;;4209087;28;20893;-55
2022/03/02 07:02:02;;;;;;;50.90;21.83;;;1.90;99.10;;;;;;4207191;28;20318;-50
2022/03/02 07:04:04;;;;;;;39.50;18.87;;;1.90;98.50;;;;;;4209404;28;20582;-46
2022/03/02 07:06:05;;;;;;;50.97;21.87;;;1.90;98.10;;;;;;4207705;28;20261;-58
2022/03/02 07:08:08;;;;;;;46.87;21.50;;;2.00;97.90;;;;;;4208542;28;20314;-54
2022/03/02 07:10:10;;;;;;;22.37;12.63;;;2.20;97.90;;;;;;4208665;28;20289;-63
2022/03/02 07:12:11;;;;;;;21.10;10.73;;;2.20;97.30;;;;;;4208439;28;20265;-54
2022/03/02 07:14:15;;;;;;;19.83;9.67;;;2.20;97.30;;;;;;4208477;28;20791;-50
2022/03/02 07:16:21;;;;;;;20.73;9.27;;;2.20;97.20;;;;;;4207170;28;20272;-42
2022/03/02 07:18:23;;;;;;;12.00;6.63;;;2.30;97.20;;;;;;4207650;28;20346;-60
2022/03/02 07:20:26;;;;;;;16.40;5.77;;;2.40;96.80;;;;;;4188407;28;20938;-49
2022/03/02 07:22:32;;;;;;;18.57;10.57;;;2.50;96.70;;;;;;4208367;28;20365;-47
2022/03/02 07:24:41;;;;;;;24.33;11.00;;;2.50;96.20;;;;;;4207515;28;20273;-43
2022/03/02 07:26:45;;;;;;;33.53;11.77;;;2.50;96.30;;;;;;4369405;22;20298;-48
2022/03/02 07:28:47;;;;;;;20.07;9.80;;;2.60;96.20;;;;;;4174056;28;20274;-56
2022/03/02 07:30:51;;;;;;;10.93;6.10;;;2.60;96.00;;;;;;4174239;28;20347;-57
2022/03/02 07:33:01;;;;;;;15.33;8.13;;;2.70;95.90;;;;;;4174236;28;20266;-50
2022/03/02 07:35:05;;;;;;;22.35;11.60;;;2.80;95.50;;;;;;4174607;28;20266;-46
2022/03/02 07:37:09;;;;;;;15.73;7.97;;;2.90;95.50;;;;;;4174690;28;20045;-62
2022/03/02 07:39:11;;;;;;;13.63;7.20;;;3.00;95.30;;;;;;4174136;28;20319;-56
2022/03/02 07:41:13;;;;;;;15.33;6.60;;;3.00;94.90;;;;;;4175280;28;20254;-62
2022/03/02 07:43:15;;;;;;;17.27;8.17;;;3.10;95.00;;;;;;4173961;28;20680;-60
2022/03/02 07:45:19;;;;;;;17.33;9.80;;;3.10;94.70;;;;;;4175330;28;20676;-60
2022/03/02 07:47:20;;;;;;;20.50;10.60;;;3.20;94.70;;;;;;4173339;28;20324;-57
2022/03/02 07:49:21;;;;;;;15.83;8.60;;;3.20;94.70;;;;;;4174808;28;20254;-62
2022/03/02 07:51:24;;;;;;;17.00;9.43;;;3.40;94.80;;;;;;4174248;28;20347;-47
2022/03/02 07:53:31;;;;;;;17.37;7.37;;;3.50;94.60;;;;;;4175176;28;20364;-57
2022/03/02 07:55:33;;;;;;;15.80;6.17;;;3.70;94.50;;;;;;4174159;28;20626;-52
2022/03/02 07:57:35;;;;;;;10.53;5.30;;;3.80;94.10;;;;;;4175168;28;20332;-62
2022/03/02 07:59:38;;;;;;;9.27;4.43;;;3.90;93.80;;;;;;4173176;28;20273;-65
2022/03/02 08:01:40;;;;;;;11.37;5.20;;;4.00;93.60;;;;;;4174989;28;20254;-58
2022/03/02 08:03:43;;;;;;;14.40;5.80;;;4.00;93.30;;;;;;4173911;28;20718;-66
2022/03/02 08:05:45;;;;;;;17.50;7.97;;;4.10;93.60;;;;;;4174828;28;20288;-50
2022/03/02 08:07:48;;;;;;;11.47;7.13;;;4.20;93.40;;;;;;4173993;28;20262;-58
2022/03/02 08:09:52;;;;;;;16.43;7.87;;;4.30;93.20;;;;;;4174155;28;20327;-45
2022/03/02 08:11:55;;;;;;;6.90;4.07;;;4.40;92.80;;;;;;4173786;28;20302;-52
2022/03/02 08:13:57;;;;;;;14.17;7.00;;;4.40;92.40;;;;;;4173309;28;20339;-47
2022/03/02 08:15:59;;;;;;;10.20;4.23;;;4.70;92.60;;;;;;4174294;28;20320;-64
2022/03/02 08:18:01;;;;;;;10.17;4.13;;;4.90;92.10;;;;;;4173154;28;20270;-65
2022/03/02 08:20:04;;;;;;;6.47;3.87;;;5.10;91.90;;;;;;4174883;28;20717;-60
2022/03/02 08:22:19;;;;;;;6.20;3.33;;;5.10;91.60;;;;;;4406395;22;20261;-56
2022/03/02 08:24:24;;;;;;;5.67;3.70;;;5.20;91.50;;;;;;4173844;28;20681;-58
2022/03/02 08:26:26;;;;;;;10.03;3.07;;;5.20;91.30;;;;;;4173225;28;20277;-60
2022/03/02 08:28:31;;;;;;;9.57;3.50;;;5.20;90.60;;;;;;4155761;28;20825;-57
2022/03/02 08:30:33;;;;;;;8.20;3.37;;;5.20;91.10;;;;;;4173226;28;20293;-53
2022/03/02 08:32:39;;;;;;;6.73;4.10;;;5.40;91.00;;;;;;4174846;28;20262;-55
2022/03/02 08:36:48;;;;;;;6.00;3.63;;;5.70;90.80;;;;;;4205772;28;20366;-51
2022/03/02 08:38:51;;;;;;;8.73;4.33;;;5.60;90.30;;;;;;4205581;28;20272;-63
2022/03/02 08:40:52;;;;;;;8.53;5.33;;;5.70;90.40;;;;;;4206318;28;20703;-50
2022/03/02 08:42:56;;;;;;;15.70;5.63;;;5.60;90.40;;;;;;4206019;28;20277;-52
2022/03/02 08:44:58;;;;;;;11.57;5.87;;;5.70;90.40;;;;;;4188492;28;20696;-68
2022/03/02 08:46:59;;;;;;;11.40;5.93;;;5.70;89.80;;;;;;4205797;28;20350;-57
2022/03/02 08:49:00;;;;;;;12.63;5.50;;;5.80;90.20;;;;;;4188644;28;20273;-60
2022/03/02 08:51:02;;;;;;;10.87;5.83;;;5.70;89.80;;;;;;4205972;28;20320;-53
2022/03/02 08:53:03;;;;;;;10.57;5.60;;;5.80;90.10;;;;;;4207954;28;20334;-57
2022/03/02 08:55:11;;;;;;;9.70;5.37;;;5.80;89.80;;;;;;4204915;28;20326;-51
2022/03/02 08:57:13;;;;;;;14.57;8.30;;;5.90;89.90;;;;;;4206802;28;20334;-50
2022/03/02 08:59:18;;;;;;;16.10;7.57;;;5.90;89.10;;;;;;4205823;28;20295;-63
2022/03/02 09:01:19;;;;;;;11.83;6.07;;;5.90;89.60;;;;;;4206662;28;20269;-57
2022/03/02 09:03:23;;;;;;;11.03;5.00;;;5.90;89.80;;;;;;4206439;28;20257;-56
2022/03/02 09:08:22;;;;;;;13.93;4.57;;;5.90;88.00;;;;;;4191066;22;20355;-47
2022/03/02 09:10:24;;;;;;;18.63;4.87;;;5.90;88.30;;;;;;4188882;28;20886;-48
2022/03/02 09:12:25;;;;;;;9.40;4.33;;;5.60;87.90;;;;;;4189245;28;20617;-50
2022/03/02 09:14:26;;;;;;;18.33;4.90;;;5.50;88.70;;;;;;4188122;28;20327;-64
2022/03/02 09:16:28;;;;;;;9.53;3.60;;;5.60;88.90;;;;;;4188409;28;20292;-55
2022/03/02 09:18:29;;;;;;;6.07;3.23;;;5.60;88.30;;;;;;4189559;28;20315;-64
2022/03/02 09:20:30;;;;;;;4.77;2.93;;;5.80;88.40;;;;;;4188868;28;20691;-56
2022/03/02 09:22:34;;;;;;;9.23;3.50;;;5.80;88.10;;;;;;4190406;28;20265;-56
2022/03/02 09:24:38;;;;;;;5.60;3.60;;;5.70;87.00;;;;;;4188511;28;20756;-59
2022/03/02 09:26:40;;;;;;;7.67;3.83;;;5.60;88.10;;;;;;4190003;28;20755;-46
2022/03/02 09:28:43;;;;;;;6.97;4.37;;;5.80;88.30;;;;;;4189025;28;20804;-58
2022/03/02 09:30:46;;;;;;;7.43;4.30;;;5.90;88.40;;;;;;4189856;28;20386;-52
2022/03/02 09:32:52;;;;;;;6.97;3.83;;;6.00;87.70;;;;;;4188529;28;20273;-58
2022/03/02 09:34:55;;;;;;;7.27;3.80;;;6.00;87.10;;;;;;4188807;28;20266;-54
2022/03/02 09:36:59;;;;;;;8.30;3.63;;;5.90;87.20;;;;;;4187930;28;20269;-46
2022/03/02 09:39:02;;;;;;;10.20;4.00;;;6.00;87.60;;;;;;4189543;28;20265;-65
2022/03/02 09:41:17;;;;;;;6.23;3.90;;;6.10;87.60;;;;;;4187776;28;20077;-55
2022/03/02 09:43:19;;;;;;;9.37;4.57;;;6.20;87.40;;;;;;4189858;28;20330;-55
2022/03/02 09:45:21;;;;;;;8.90;4.90;;;6.40;87.10;;;;;;4169386;28;20290;-58
2022/03/02 09:47:24;;;;;;;12.27;4.97;;;6.40;86.30;;;;;;4189425;28;20032;-48
2022/03/02 09:49:30;;;;;;;16.30;4.57;;;6.50;86.40;;;;;;4188097;28;20423;-56
2022/03/02 09:51:33;;;;;;;12.13;6.00;;;6.30;85.70;;;;;;4188857;28;20114;-51
2022/03/02 09:53:35;;;;;;;6.70;3.70;;;6.20;85.70;;;;;;4170232;28;20032;-57
2022/03/02 09:55:40;;;;;;;9.80;4.43;;;5.90;84.70;;;;;;4188746;28;20782;-44
2022/03/02 09:57:48;;;;;;;15.13;4.23;;;5.60;85.90;;;;;;4189105;28;20281;-53
2022/03/02 09:59:57;;;;;;;7.47;4.30;;;5.70;86.40;;;;;;4189085;28;21227;-81
2022/03/02 10:02:00;;;;;;;8.70;4.60;;;5.70;85.50;;;;;;4189280;28;20326;-58
2022/03/02 10:04:21;;;;;;;8.30;4.67;;;5.60;85.90;;;;;;4188903;28;20291;-47
2022/03/02 10:06:23;;;;;;;10.07;6.28;;;5.70;86.30;;;;;;4189036;28;20338;-53
2022/03/02 10:08:30;;;;;;;12.50;5.10;;;5.80;86.00;;;;;;4189010;28;20057;-47
2022/03/02 10:10:37;;;;;;;8.60;5.23;;;5.90;85.70;;;;;;4189101;28;20269;-68
2022/03/02 10:12:39;;;;;;;9.20;4.73;;;5.90;85.50;;;;;;4188190;28;20794;-55
2022/03/02 10:14:42;;;;;;;12.97;4.93;;;6.00;85.60;;;;;;4189382;28;20315;-62
2022/03/02 10:16:45;;;;;;;14.70;7.13;;;6.10;85.70;;;;;;4188021;28;20269;-59
2022/03/02 10:18:54;;;;;;;9.40;5.30;;;6.20;85.20;;;;;;4191223;28;20725;-55
2022/03/02 10:21:00;;;;;;;8.20;3.77;;;6.20;85.70;;;;;;4191394;28;20315;-54
2022/03/02 10:23:22;;;;;;;7.77;3.67;;;6.20;84.70;;;;;;4192818;28;20402;-53
2022/03/02 10:25:37;;;;;;;6.77;3.07;;;6.20;84.50;;;;;;4191352;28;20257;-61
2022/03/02 10:27:58;;;;;;;12.33;3.50;;;6.30;84.60;;;;;;4192239;28;20319;-61
2022/03/02 10:30:09;;;;;;;5.43;2.70;;;6.40;83.70;;;;;;4191810;28;20330;-56
2022/03/02 10:32:17;;;;;;;6.03;2.90;;;6.50;83.60;;;;;;4191160;28;20297;-63
2022/03/02 10:34:46;;;;;;;5.30;3.10;;;6.50;82.90;;;;;;4190680;28;20285;-46
2022/03/02 10:36:56;;;;;;;8.00;2.90;;;6.60;83.30;;;;;;4191434;28;20319;-62
2022/03/02 10:39:00;;;;;;;6.70;3.40;;;6.80;83.50;;;;;;4191845;28;20258;-46
2022/03/02 10:41:01;;;;;;;6.47;3.20;;;6.90;82.60;;;;;;4191301;28;20384;-43
2022/03/02 10:43:09;;;;;;;7.73;2.93;;;6.90;82.40;;;;;;4191154;28;20273;-47
2022/03/02 10:45:22;;;;;;;8.50;3.50;;;7.00;82.70;;;;;;4191612;28;20270;-53
2022/03/02 10:47:25;;;;;;;5.40;3.53;;;7.10;82.50;;;;;;4190384;28;20510;-53
2022/03/02 10:49:28;;;;;;;11.57;3.70;;;7.20;81.80;;;;;;4173230;28;20049;-46
2022/03/02 10:51:32;;;;;;;7.87;2.87;;;7.30;81.60;;;;;;4191371;28;20044;-44